sensor_id;sensor_type;location;lat;lon;timestamp;P1;durP1;ratioP1;P2;durP2;ratioP2
60430;SDS011;46285;45.122;20.726;2024-03-08T00:04:54;22.65;;;15.05;;
60430;SDS011;46285;45.122;20.726;2024-03-08T00:14:57;22.33;;;14.85;;
60430;SDS011;46285;45.122;20.726;2024-03-08T00:25:00;18.48;;;13.18;;
60430;SDS011;46285;45.122;20.726;2024-03-08T00:35:03;21.42;;;14.27;;
60430;SDS011;46285;45.122;20.726;2024-03-08T00:45:05;18.92;;;13.90;;
60430;SDS011;46285;45.122;20.726;2024-03-08T00:55:07;21.55;;;13.45;;
60430;SDS011;46285;45.122;20.726;2024-03-08T01:05:11;19.98;;;14.50;;
60430;SDS011;46285;45.122;20.726;2024-03-08T01:15:13;22.50;;;14.80;;
60430;SDS011;46285;45.122;20.726;2024-03-08T01:25:15;21.25;;;16.13;;
60430;SDS011;46285;45.122;20.726;2024-03-08T01:35:17;24.05;;;17.25;;
60430;SDS011;46285;45.122;20.726;2024-03-08T01:45:19;26.17;;;18.58;;
60430;SDS011;46285;45.122;20.726;2024-03-08T01:55:21;28.33;;;19.38;;
60430;SDS011;46285;45.122;20.726;2024-03-08T02:05:23;32.42;;;20.30;;
60430;SDS011;46285;45.122;20.726;2024-03-08T02:15:25;31.52;;;21.33;;
60430;SDS011;46285;45.122;20.726;2024-03-08T02:25:27;36.00;;;22.15;;
60430;SDS011;46285;45.122;20.726;2024-03-08T02:35:29;36.10;;;22.20;;
60430;SDS011;46285;45.122;20.726;2024-03-08T02:45:31;30.40;;;20.60;;
60430;SDS011;46285;45.122;20.726;2024-03-08T02:55:32;32.42;;;23.17;;
60430;SDS011;46285;45.122;20.726;2024-03-08T03:05:36;37.38;;;23.67;;
60430;SDS011;46285;45.122;20.726;2024-03-08T03:15:38;30.90;;;20.70;;
60430;SDS011;46285;45.122;20.726;2024-03-08T03:25:42;32.22;;;21.70;;
60430;SDS011;46285;45.122;20.726;2024-03-08T03:35:47;27.52;;;20.13;;
60430;SDS011;46285;45.122;20.726;2024-03-08T03:45:49;28.50;;;19.02;;
60430;SDS011;46285;45.122;20.726;2024-03-08T03:55:51;24.67;;;15.85;;
60430;SDS011;46285;45.122;20.726;2024-03-08T04:05:53;25.30;;;16.73;;
60430;SDS011;46285;45.122;20.726;2024-03-08T04:15:55;24.17;;;16.30;;
60430;SDS011;46285;45.122;20.726;2024-03-08T04:25:57;22.45;;;15.82;;
60430;SDS011;46285;45.122;20.726;2024-03-08T04:35:59;25.77;;;17.50;;
60430;SDS011;46285;45.122;20.726;2024-03-08T04:46:01;21.77;;;16.02;;
60430;SDS011;46285;45.122;20.726;2024-03-08T04:56:04;24.67;;;17.52;;
60430;SDS011;46285;45.122;20.726;2024-03-08T05:06:08;25.80;;;16.58;;
60430;SDS011;46285;45.122;20.726;2024-03-08T05:16:09;28.17;;;18.88;;
60430;SDS011;46285;45.122;20.726;2024-03-08T05:26:11;28.25;;;17.38;;
60430;SDS011;46285;45.122;20.726;2024-03-08T05:36:14;30.25;;;19.60;;
60430;SDS011;46285;45.122;20.726;2024-03-08T05:46:19;31.27;;;21.73;;
60430;SDS011;46285;45.122;20.726;2024-03-08T05:56:22;24.55;;;16.90;;
60430;SDS011;46285;45.122;20.726;2024-03-08T06:06:25;24.80;;;17.15;;
60430;SDS011;46285;45.122;20.726;2024-03-08T06:16:27;27.42;;;18.75;;
60430;SDS011;46285;45.122;20.726;2024-03-08T06:26:29;28.85;;;20.08;;
60430;SDS011;46285;45.122;20.726;2024-03-08T06:36:31;29.30;;;20.35;;
60430;SDS011;46285;45.122;20.726;2024-03-08T06:46:34;37.97;;;24.58;;
60430;SDS011;46285;45.122;20.726;2024-03-08T06:56:36;33.90;;;22.83;;
60430;SDS011;46285;45.122;20.726;2024-03-08T07:06:38;44.47;;;27.40;;
60430;SDS011;46285;45.122;20.726;2024-03-08T07:16:41;58.78;;;36.50;;
60430;SDS011;46285;45.122;20.726;2024-03-08T07:26:45;43.13;;;26.42;;
60430;SDS011;46285;45.122;20.726;2024-03-08T07:36:51;30.00;;;19.97;;
60430;SDS011;46285;45.122;20.726;2024-03-08T07:46:53;35.67;;;21.70;;
60430;SDS011;46285;45.122;20.726;2024-03-08T07:56:54;41.50;;;25.42;;
60430;SDS011;46285;45.122;20.726;2024-03-08T08:06:56;35.92;;;23.83;;
60430;SDS011;46285;45.122;20.726;2024-03-08T08:16:58;33.60;;;20.80;;
60430;SDS011;46285;45.122;20.726;2024-03-08T08:27:04;33.22;;;20.48;;
60430;SDS011;46285;45.122;20.726;2024-03-08T08:37:06;31.35;;;19.02;;
60430;SDS011;46285;45.122;20.726;2024-03-08T08:47:10;29.85;;;18.70;;
60430;SDS011;46285;45.122;20.726;2024-03-08T08:57:14;32.08;;;19.92;;
60430;SDS011;46285;45.122;20.726;2024-03-08T09:07:16;34.90;;;23.40;;
60430;SDS011;46285;45.122;20.726;2024-03-08T09:17:19;41.03;;;22.98;;
60430;SDS011;46285;45.122;20.726;2024-03-08T09:27:21;34.17;;;20.33;;
60430;SDS011;46285;45.122;20.726;2024-03-08T09:37:23;39.78;;;24.00;;
60430;SDS011;46285;45.122;20.726;2024-03-08T09:47:25;33.92;;;21.58;;
60430;SDS011;46285;45.122;20.726;2024-03-08T09:57:36;36.00;;;21.35;;
60430;SDS011;46285;45.122;20.726;2024-03-08T10:07:38;27.27;;;16.52;;
60430;SDS011;46285;45.122;20.726;2024-03-08T10:17:40;27.50;;;18.65;;
60430;SDS011;46285;45.122;20.726;2024-03-08T10:27:42;27.60;;;17.38;;
60430;SDS011;46285;45.122;20.726;2024-03-08T10:37:45;23.00;;;15.20;;
60430;SDS011;46285;45.122;20.726;2024-03-08T10:47:47;21.30;;;14.88;;
60430;SDS011;46285;45.122;20.726;2024-03-08T10:57:51;23.98;;;16.42;;
60430;SDS011;46285;45.122;20.726;2024-03-08T11:07:54;32.25;;;20.45;;
60430;SDS011;46285;45.122;20.726;2024-03-08T11:17:58;28.05;;;16.50;;
60430;SDS011;46285;45.122;20.726;2024-03-08T11:28:13;29.42;;;19.92;;
60430;SDS011;46285;45.122;20.726;2024-03-08T11:38:19;27.30;;;16.25;;
60430;SDS011;46285;45.122;20.726;2024-03-08T11:48:29;22.70;;;14.48;;
60430;SDS011;46285;45.122;20.726;2024-03-08T11:58:40;19.67;;;12.13;;
60430;SDS011;46285;45.122;20.726;2024-03-08T12:08:42;18.88;;;12.85;;
60430;SDS011;46285;45.122;20.726;2024-03-08T12:18:46;23.80;;;14.30;;
60430;SDS011;46285;45.122;20.726;2024-03-08T12:28:49;19.83;;;13.63;;
60430;SDS011;46285;45.122;20.726;2024-03-08T12:38:53;24.60;;;15.15;;
60430;SDS011;46285;45.122;20.726;2024-03-08T12:59:00;28.02;;;18.05;;
60430;SDS011;46285;45.122;20.726;2024-03-08T13:09:03;23.35;;;15.07;;
60430;SDS011;46285;45.122;20.726;2024-03-08T13:19:07;20.27;;;13.63;;
60430;SDS011;46285;45.122;20.726;2024-03-08T13:29:10;22.40;;;12.02;;
60430;SDS011;46285;45.122;20.726;2024-03-08T13:39:13;30.02;;;20.05;;
60430;SDS011;46285;45.122;20.726;2024-03-08T13:49:19;20.85;;;13.38;;
60430;SDS011;46285;45.122;20.726;2024-03-08T13:59:21;17.98;;;10.38;;
60430;SDS011;46285;45.122;20.726;2024-03-08T14:09:23;21.33;;;11.90;;
60430;SDS011;46285;45.122;20.726;2024-03-08T14:19:26;21.98;;;14.63;;
60430;SDS011;46285;45.122;20.726;2024-03-08T14:29:29;20.90;;;12.45;;
60430;SDS011;46285;45.122;20.726;2024-03-08T14:39:33;16.17;;;11.23;;
60430;SDS011;46285;45.122;20.726;2024-03-08T14:49:35;21.70;;;13.32;;
60430;SDS011;46285;45.122;20.726;2024-03-08T14:59:39;26.33;;;16.10;;
60430;SDS011;46285;45.122;20.726;2024-03-08T15:09:40;25.02;;;13.57;;
60430;SDS011;46285;45.122;20.726;2024-03-08T15:19:44;18.85;;;13.45;;
60430;SDS011;46285;45.122;20.726;2024-03-08T15:29:46;22.92;;;15.75;;
60430;SDS011;46285;45.122;20.726;2024-03-08T15:39:52;31.35;;;18.40;;
60430;SDS011;46285;45.122;20.726;2024-03-08T15:49:54;31.90;;;22.23;;
60430;SDS011;46285;45.122;20.726;2024-03-08T15:59:58;30.27;;;20.60;;
60430;SDS011;46285;45.122;20.726;2024-03-08T16:10:01;32.28;;;22.17;;
60430;SDS011;46285;45.122;20.726;2024-03-08T16:20:03;47.13;;;29.77;;
60430;SDS011;46285;45.122;20.726;2024-03-08T16:30:12;45.80;;;30.02;;
60430;SDS011;46285;45.122;20.726;2024-03-08T16:40:17;35.27;;;25.93;;
60430;SDS011;46285;45.122;20.726;2024-03-08T16:50:21;32.50;;;24.25;;
60430;SDS011;46285;45.122;20.726;2024-03-08T17:00:24;42.67;;;25.92;;
60430;SDS011;46285;45.122;20.726;2024-03-08T17:10:31;41.92;;;27.70;;
60430;SDS011;46285;45.122;20.726;2024-03-08T17:20:37;66.63;;;39.72;;
60430;SDS011;46285;45.122;20.726;2024-03-08T17:30:39;57.72;;;37.53;;
60430;SDS011;46285;45.122;20.726;2024-03-08T17:40:44;40.27;;;29.13;;
60430;SDS011;46285;45.122;20.726;2024-03-08T17:50:48;39.15;;;25.52;;
60430;SDS011;46285;45.122;20.726;2024-03-08T18:11:20;40.90;;;25.67;;
60430;SDS011;46285;45.122;20.726;2024-03-08T18:21:26;38.55;;;25.92;;
60430;SDS011;46285;45.122;20.726;2024-03-08T18:31:30;45.65;;;29.35;;
60430;SDS011;46285;45.122;20.726;2024-03-08T18:41:32;52.42;;;31.73;;
60430;SDS011;46285;45.122;20.726;2024-03-08T18:51:35;77.38;;;52.33;;
60430;SDS011;46285;45.122;20.726;2024-03-08T19:01:38;45.97;;;31.15;;
60430;SDS011;46285;45.122;20.726;2024-03-08T19:11:41;48.55;;;28.50;;
60430;SDS011;46285;45.122;20.726;2024-03-08T19:21:44;53.35;;;34.83;;
60430;SDS011;46285;45.122;20.726;2024-03-08T19:31:46;47.67;;;30.25;;
60430;SDS011;46285;45.122;20.726;2024-03-08T19:41:48;46.72;;;30.27;;
60430;SDS011;46285;45.122;20.726;2024-03-08T19:51:50;52.40;;;27.30;;
60430;SDS011;46285;45.122;20.726;2024-03-08T20:01:52;40.47;;;27.05;;
60430;SDS011;46285;45.122;20.726;2024-03-08T20:11:55;40.60;;;26.60;;
60430;SDS011;46285;45.122;20.726;2024-03-08T20:21:57;40.38;;;25.20;;
60430;SDS011;46285;45.122;20.726;2024-03-08T20:32:02;53.50;;;32.85;;
60430;SDS011;46285;45.122;20.726;2024-03-08T20:42:04;50.92;;;30.55;;
60430;SDS011;46285;45.122;20.726;2024-03-08T20:52:06;46.15;;;32.03;;
60430;SDS011;46285;45.122;20.726;2024-03-08T21:02:08;44.97;;;27.40;;
60430;SDS011;46285;45.122;20.726;2024-03-08T21:12:10;44.13;;;24.77;;
60430;SDS011;46285;45.122;20.726;2024-03-08T21:22:15;43.53;;;26.58;;
60430;SDS011;46285;45.122;20.726;2024-03-08T21:32:17;46.15;;;26.33;;
60430;SDS011;46285;45.122;20.726;2024-03-08T21:42:19;40.75;;;24.92;;
60430;SDS011;46285;45.122;20.726;2024-03-08T21:52:21;40.17;;;26.92;;
60430;SDS011;46285;45.122;20.726;2024-03-08T22:02:24;41.75;;;26.88;;
60430;SDS011;46285;45.122;20.726;2024-03-08T22:12:31;45.10;;;28.83;;
60430;SDS011;46285;45.122;20.726;2024-03-08T22:22:35;43.17;;;26.80;;
60430;SDS011;46285;45.122;20.726;2024-03-08T22:32:36;39.38;;;24.90;;
60430;SDS011;46285;45.122;20.726;2024-03-08T22:42:39;38.70;;;25.35;;
60430;SDS011;46285;45.122;20.726;2024-03-08T22:52:41;40.15;;;26.13;;
60430;SDS011;46285;45.122;20.726;2024-03-08T23:02:46;39.23;;;25.43;;
60430;SDS011;46285;45.122;20.726;2024-03-08T23:12:48;41.38;;;24.60;;
60430;SDS011;46285;45.122;20.726;2024-03-08T23:22:53;43.78;;;28.30;;
60430;SDS011;46285;45.122;20.726;2024-03-08T23:32:56;36.45;;;24.08;;
60430;SDS011;46285;45.122;20.726;2024-03-08T23:43:01;39.17;;;23.55;;
60430;SDS011;46285;45.122;20.726;2024-03-08T23:53:04;41.58;;;24.42;;
